createdAt,value
2018-11-06T00:00:59.449Z,90.08
2018-11-06T00:01:59.834Z,89.82
2018-11-06T00:02:59.599Z,90.02
2018-11-06T00:03:59.431Z,89.84
2018-11-06T00:04:59.423Z,89.88
2018-11-06T00:05:59.495Z,89.81
2018-11-06T00:06:59.483Z,89.63
2018-11-06T00:07:59.668Z,89.73
2018-11-06T00:09:00.553Z,89.69
2018-11-06T00:09:59.447Z,89.67
2018-11-06T00:10:59.494Z,89.88
2018-11-06T00:11:59.427Z,89.95
2018-11-06T00:12:59.642Z,90.63
2018-11-06T00:13:59.473Z,90.82
2018-11-06T00:14:59.404Z,91.03
2018-11-06T00:15:59.516Z,91.41
2018-11-06T00:16:59.486Z,91.43
2018-11-06T00:17:59.509Z,91.16
2018-11-06T00:18:59.733Z,91.4
2018-11-06T00:20:01.630Z,91.29
2018-11-06T00:21:00.529Z,91.46
2018-11-06T00:21:59.401Z,91.76
2018-11-06T00:23:00.497Z,91.71
2018-11-06T00:23:59.513Z,91.64
2018-11-06T00:24:59.573Z,91.22
2018-11-06T00:25:59.531Z,91.72
2018-11-06T00:26:59.402Z,91.82
2018-11-06T00:27:59.387Z,91.82
2018-11-06T00:28:59.594Z,91.79
2018-11-06T00:30:01.587Z,92.2
2018-11-06T00:30:59.513Z,92.28
2018-11-06T00:31:59.485Z,91.93
2018-11-06T00:32:59.577Z,91.73
2018-11-06T00:34:00.851Z,91.51
2018-11-06T00:34:59.504Z,91.49
2018-11-06T00:35:59.448Z,91.4
2018-11-06T00:36:59.576Z,91.22
2018-11-06T00:37:59.600Z,91.22
2018-11-06T00:39:00.623Z,91.02
2018-11-06T00:39:59.412Z,90.88
2018-11-06T00:40:59.782Z,90.91
2018-11-06T00:41:59.599Z,91.27
2018-11-06T00:42:59.438Z,91.08
2018-11-06T00:43:59.416Z,90.77
2018-11-06T00:44:59.605Z,90.83
2018-11-06T00:45:59.469Z,91.1
2018-11-06T00:46:59.451Z,90.95
2018-11-06T00:47:59.617Z,91.09
2018-11-06T00:48:59.525Z,91.69
2018-11-06T00:49:59.611Z,91.69
2018-11-06T00:50:59.557Z,91.33
2018-11-06T00:51:59.620Z,91.9
2018-11-06T00:52:59.473Z,91.69
2018-11-06T00:54:00.393Z,91.83
2018-11-06T00:54:59.498Z,91.88
2018-11-06T00:55:59.417Z,91.62
2018-11-06T00:56:59.543Z,91.58
2018-11-06T00:57:59.570Z,91.58
2018-11-06T00:58:59.450Z,91.71
2018-11-06T00:59:59.425Z,91.75
2018-11-06T01:00:59.348Z,92.2
2018-11-06T01:01:59.568Z,92.74
2018-11-06T01:02:59.498Z,93.3
2018-11-06T01:03:59.536Z,93.48
2018-11-06T01:04:59.463Z,93.53
2018-11-06T01:05:59.375Z,93.96
2018-11-06T01:06:59.500Z,94
2018-11-06T01:07:59.492Z,93.62
2018-11-06T01:08:59.366Z,93.6
2018-11-06T01:10:00.117Z,93.44
2018-11-06T01:10:59.388Z,92.93
2018-11-06T01:11:59.336Z,93.66
2018-11-06T01:12:59.402Z,93.67
2018-11-06T01:13:59.508Z,93.55
2018-11-06T01:14:59.489Z,93.55
2018-11-06T01:15:59.481Z,93.59
2018-11-06T01:16:59.400Z,93.84
2018-11-06T01:17:59.383Z,93.93
2018-11-06T01:18:59.339Z,94.37
2018-11-06T01:19:59.447Z,94.54
2018-11-06T01:20:59.524Z,95.05
2018-11-06T01:21:59.634Z,95.41
2018-11-06T01:22:59.402Z,95.16
2018-11-06T01:23:59.421Z,95.82
2018-11-06T01:24:59.505Z,95.62
2018-11-06T01:25:59.417Z,95.7
2018-11-06T01:26:59.824Z,95.73
2018-11-06T01:27:59.767Z,95.94
2018-11-06T01:28:59.395Z,96.35
2018-11-06T01:29:59.460Z,96.67
2018-11-06T01:30:59.315Z,96.8
2018-11-06T01:31:59.513Z,96.84
2018-11-06T01:32:59.324Z,96.69
2018-11-06T01:33:59.856Z,96.57
2018-11-06T01:34:59.389Z,96.74
2018-11-06T01:35:59.328Z,96.48
2018-11-06T01:36:59.289Z,96.59
2018-11-06T01:37:59.363Z,96.68
2018-11-06T01:38:59.386Z,96.44
2018-11-06T01:39:59.995Z,96.13
2018-11-06T01:40:59.258Z,95.83
2018-11-06T01:41:59.351Z,95.41
2018-11-06T01:42:59.290Z,95.18
2018-11-06T01:43:59.298Z,95.51
2018-11-06T01:44:59.382Z,95.42
2018-11-06T01:45:59.320Z,95.12
2018-11-06T01:46:59.276Z,94.8
2018-11-06T01:47:59.349Z,94.74
2018-11-06T01:48:59.253Z,95.03
2018-11-06T01:49:59.341Z,95.03
2018-11-06T01:50:59.361Z,94.9
2018-11-06T01:51:59.315Z,94.79
2018-11-06T01:52:59.323Z,94.74
2018-11-06T01:53:59.412Z,94.61
2018-11-06T01:54:59.339Z,94.51
2018-11-06T01:55:59.340Z,94.28
2018-11-06T01:56:59.303Z,94.03
2018-11-06T01:57:59.352Z,93.95
2018-11-06T01:58:59.617Z,93.91
2018-11-06T01:59:59.394Z,95.21
2018-11-06T02:00:59.437Z,95.4
2018-11-06T02:01:59.358Z,95.3
2018-11-06T02:02:59.676Z,95.11
2018-11-06T02:03:59.323Z,94.85
2018-11-06T02:04:59.311Z,94.5
2018-11-06T02:05:59.404Z,93.64
2018-11-06T02:06:59.315Z,93.52
2018-11-06T02:07:59.282Z,93.38
2018-11-06T02:08:59.294Z,93.43
2018-11-06T02:09:59.268Z,93.57
2018-11-06T02:10:59.324Z,93.56
2018-11-06T02:11:59.278Z,93.56
2018-11-06T02:12:59.478Z,93.46
2018-11-06T02:13:59.247Z,93.4
2018-11-06T02:14:59.247Z,93.34
2018-11-06T02:15:59.309Z,93.5
2018-11-06T02:16:59.576Z,93.46
2018-11-06T02:17:59.329Z,94.06
2018-11-06T02:18:59.405Z,94.33
2018-11-06T02:19:59.408Z,94.93
2018-11-06T02:20:59.445Z,95.05
2018-11-06T02:21:59.340Z,95.12
2018-11-06T02:22:59.294Z,95.38
2018-11-06T02:23:59.356Z,95.36
2018-11-06T02:24:59.389Z,95.63
2018-11-06T02:25:59.253Z,95.52
2018-11-06T02:26:59.328Z,95.4
2018-11-06T02:27:59.246Z,95.2
2018-11-06T02:28:59.211Z,95.26
2018-11-06T02:29:59.238Z,95.05
2018-11-06T02:31:00.221Z,94.99
2018-11-06T02:31:59.388Z,94.9
2018-11-06T02:32:59.242Z,94.83
2018-11-06T02:33:59.206Z,94.69
2018-11-06T02:34:59.495Z,94.82
2018-11-06T02:35:59.304Z,94.69
2018-11-06T02:36:59.245Z,94.72
2018-11-06T02:37:59.214Z,94.67
2018-11-06T02:38:59.259Z,94.51
2018-11-06T02:39:59.419Z,94.92
2018-11-06T02:40:59.657Z,95.03
2018-11-06T02:41:59.241Z,95.2
2018-11-06T02:42:59.336Z,95.29
2018-11-06T02:43:59.301Z,95.03
2018-11-06T02:44:59.282Z,95.08
2018-11-06T02:45:59.204Z,95.18
2018-11-06T02:46:59.405Z,95.29
2018-11-06T02:47:59.311Z,95.29
2018-11-06T02:48:59.323Z,95.41
2018-11-06T02:49:59.330Z,95.92
2018-11-06T02:50:59.321Z,95.97
2018-11-06T02:51:59.386Z,95.79
2018-11-06T02:52:59.386Z,95.58
2018-11-06T02:53:59.660Z,95.65
2018-11-06T02:54:59.380Z,95.68
2018-11-06T02:55:59.962Z,95.78
2018-11-06T02:56:59.229Z,95.74
2018-11-06T02:57:59.253Z,95.74
2018-11-06T02:58:59.294Z,95.85
2018-11-06T02:59:59.375Z,95.82
2018-11-06T03:00:59.688Z,95.75
2018-11-06T03:01:59.283Z,95.63
2018-11-06T03:02:59.361Z,95.75
2018-11-06T03:03:59.185Z,95.71
2018-11-06T03:04:59.686Z,95.53
2018-11-06T03:05:59.223Z,95.36
2018-11-06T03:06:59.379Z,95.8
2018-11-06T03:07:59.221Z,95.49
2018-11-06T03:08:59.280Z,95.89
2018-11-06T03:09:59.256Z,96.21
2018-11-06T03:10:59.509Z,96.32
2018-11-06T03:11:59.262Z,96.33
2018-11-06T03:12:59.305Z,96.29
2018-11-06T03:13:59.145Z,96.13
2018-11-06T03:14:59.200Z,96.28
2018-11-06T03:15:59.299Z,96.22
2018-11-06T03:16:59.802Z,96.18
2018-11-06T03:17:59.216Z,95.9
2018-11-06T03:18:59.185Z,95.72
2018-11-06T03:19:59.186Z,95.61
2018-11-06T03:20:59.138Z,95.61
2018-11-06T03:21:59.168Z,95.79
2018-11-06T03:22:59.152Z,95.95
2018-11-06T03:24:00.709Z,96.04
2018-11-06T03:24:59.174Z,96.35
2018-11-06T03:25:59.259Z,96.34
2018-11-06T03:26:59.700Z,96.21
2018-11-06T03:27:59.194Z,96.43
2018-11-06T03:28:59.209Z,96.46
2018-11-06T03:29:59.204Z,96.43
2018-11-06T03:30:59.160Z,96.6
2018-11-06T03:31:59.177Z,96.7
2018-11-06T03:32:59.468Z,96.69
2018-11-06T03:33:59.502Z,96.65
2018-11-06T03:34:59.259Z,96.85
2018-11-06T03:35:59.560Z,96.91
2018-11-06T03:36:59.188Z,97.07
2018-11-06T03:37:59.197Z,97.2
2018-11-06T03:38:59.234Z,97.38
2018-11-06T03:39:59.221Z,97.6
2018-11-06T03:40:59.152Z,97.69
2018-11-06T03:41:59.156Z,97.63
2018-11-06T03:42:59.204Z,97.71
2018-11-06T03:43:59.277Z,97.87
2018-11-06T03:44:59.202Z,97.8
2018-11-06T03:45:59.628Z,97.5
2018-11-06T03:46:59.321Z,97.27
2018-11-06T03:47:59.103Z,96.64
2018-11-06T03:48:59.568Z,96.56
2018-11-06T03:49:59.249Z,96.75
2018-11-06T03:50:59.300Z,96.91
2018-11-06T03:51:59.493Z,96.95
2018-11-06T03:52:59.380Z,97.03
2018-11-06T03:53:59.209Z,96.92
2018-11-06T03:54:59.126Z,96.7
2018-11-06T03:55:59.330Z,96.52
2018-11-06T03:56:59.134Z,96.5
2018-11-06T03:57:59.965Z,96.34
2018-11-06T03:58:59.186Z,96.15
2018-11-06T04:00:00.267Z,96.11
2018-11-06T04:00:59.224Z,96.13
2018-11-06T04:01:59.096Z,96.08
2018-11-06T04:02:59.974Z,95.99
2018-11-06T04:03:59.246Z,95.78
2018-11-06T04:04:59.160Z,95.72
2018-11-06T04:05:59.133Z,95.76
2018-11-06T04:06:59.405Z,95.6
2018-11-06T04:07:59.271Z,95.21
2018-11-06T04:08:59.119Z,95.45
2018-11-06T04:09:59.090Z,95.6
2018-11-06T04:10:59.238Z,95.82
2018-11-06T04:11:59.241Z,95.93
2018-11-06T04:12:59.198Z,95.75
2018-11-06T04:13:59.121Z,95.74
2018-11-06T04:14:59.269Z,95.4
2018-11-06T04:15:59.159Z,95.71
2018-11-06T04:16:59.514Z,95.77
2018-11-06T04:17:59.217Z,95.71
2018-11-06T04:18:59.163Z,95.69
2018-11-06T04:19:59.238Z,95.88
2018-11-06T04:20:59.055Z,95.99
2018-11-06T04:21:59.174Z,95.8
2018-11-06T04:22:59.107Z,95.9
2018-11-06T04:23:59.175Z,95.95
2018-11-06T04:24:59.292Z,95.95
2018-11-06T04:25:59.193Z,95.79
2018-11-06T04:26:59.044Z,95.6
2018-11-06T04:27:59.170Z,95.43
2018-11-06T04:28:59.094Z,95.48
2018-11-06T04:29:59.223Z,95.53
2018-11-06T04:30:59.167Z,95.08
2018-11-06T04:31:58.981Z,95.24
2018-11-06T04:32:59.230Z,94.86
2018-11-06T04:33:59.270Z,95.5
2018-11-06T04:34:59.258Z,95.59
2018-11-06T04:35:59.082Z,95.97
2018-11-06T04:36:59.076Z,96.13
2018-11-06T04:37:59.124Z,96.28
2018-11-06T04:38:59.063Z,96.78
2018-11-06T04:39:59.250Z,96.82
2018-11-06T04:40:59.176Z,96.71
2018-11-06T04:41:59.078Z,96.73
2018-11-06T04:42:59.236Z,96.49
2018-11-06T04:43:59.104Z,96.17
2018-11-06T04:44:59.180Z,95.98
2018-11-06T04:45:59.174Z,95.94
2018-11-06T04:46:59.026Z,96.04
2018-11-06T04:47:59.050Z,96.18
2018-11-06T04:48:59.213Z,96.26
2018-11-06T04:49:58.994Z,96.17
2018-11-06T04:50:59.394Z,95.99
2018-11-06T04:51:58.992Z,95.63
2018-11-06T04:52:59.027Z,95.68
2018-11-06T04:53:59.211Z,95.7
2018-11-06T04:54:59.021Z,95.43
2018-11-06T04:55:59.037Z,95.48
2018-11-06T04:56:59.016Z,95.9
2018-11-06T04:57:58.990Z,95.92
2018-11-06T04:58:59.011Z,95.7
2018-11-06T04:59:59.060Z,95.85
2018-11-06T05:00:59.086Z,95.87
2018-11-06T05:01:59.153Z,95.71
2018-11-06T05:02:58.989Z,95.58
2018-11-06T05:03:59.039Z,95.47
2018-11-06T05:04:59.175Z,95.36
2018-11-06T05:05:58.983Z,95.27
2018-11-06T05:06:59.999Z,95.35
2018-11-06T05:07:58.963Z,95.34
2018-11-06T05:08:59.376Z,95.2
2018-11-06T05:09:59.145Z,95.56
2018-11-06T05:10:59.068Z,95.77
2018-11-06T05:11:59.084Z,95.7
2018-11-06T05:12:58.970Z,95.66
2018-11-06T05:13:59.106Z,95.55
2018-11-06T05:14:58.948Z,95.39
2018-11-06T05:15:59.184Z,95.22
2018-11-06T05:16:59.166Z,95.02
2018-11-06T05:17:59.126Z,95.07
2018-11-06T05:18:59.066Z,95.13
2018-11-06T05:19:59.149Z,95.1
2018-11-06T05:20:58.979Z,95.06
2018-11-06T05:21:59.281Z,94.98
2018-11-06T05:22:59.007Z,94.96
2018-11-06T05:23:59.167Z,94.82
2018-11-06T05:24:58.986Z,94.62
2018-11-06T05:25:59.126Z,94.72
2018-11-06T05:26:59.194Z,94.66
2018-11-06T05:27:59.509Z,94.6
2018-11-06T05:28:59.101Z,94.56
2018-11-06T05:29:59.096Z,94.45
2018-11-06T05:30:59.007Z,94.32
2018-11-06T05:31:59.160Z,94.27
2018-11-06T05:32:59.593Z,94.24
2018-11-06T05:33:58.963Z,94.19
2018-11-06T05:34:59.574Z,93.84
2018-11-06T05:35:59.042Z,93.74
2018-11-06T05:36:59.048Z,93.48
2018-11-06T05:37:59.058Z,93.76
2018-11-06T05:38:59.465Z,93.86
2018-11-06T05:39:59.040Z,93.91
2018-11-06T05:40:59.025Z,93.62
2018-11-06T05:41:59.050Z,93.49
2018-11-06T05:42:58.988Z,93.63
2018-11-06T05:43:59.345Z,93.66
2018-11-06T05:44:59.020Z,93.72
2018-11-06T05:45:59.010Z,94.03
2018-11-06T05:46:59.111Z,93.86
2018-11-06T05:47:59.015Z,93.69
2018-11-06T05:48:58.883Z,93.82
2018-11-06T05:49:59.108Z,93.97
2018-11-06T05:50:58.992Z,94.02
2018-11-06T05:51:58.953Z,94.25
2018-11-06T05:52:59.201Z,94.04
2018-11-06T05:53:59.117Z,94.06
2018-11-06T05:54:58.924Z,94.57
2018-11-06T05:55:59.111Z,94.97
2018-11-06T05:56:58.893Z,95.12
2018-11-06T05:57:59.221Z,95.52
2018-11-06T05:58:59.030Z,95.27
2018-11-06T05:59:58.902Z,95.61
2018-11-06T06:00:59.209Z,95.66
2018-11-06T06:01:58.976Z,95.63
2018-11-06T06:02:58.958Z,96.14
2018-11-06T06:03:58.928Z,96.49
2018-11-06T06:04:59.038Z,96.01
2018-11-06T06:05:59.182Z,95.94
2018-11-06T06:06:58.877Z,95.96
2018-11-06T06:07:58.874Z,95.93
2018-11-06T06:08:59.206Z,96.04
2018-11-06T06:09:59.066Z,96.37
2018-11-06T06:10:59.357Z,96.47
2018-11-06T06:11:58.905Z,96.12
2018-11-06T06:12:58.944Z,95.75
2018-11-06T06:13:59.107Z,95.18
2018-11-06T06:14:58.857Z,95.74
2018-11-06T06:15:58.862Z,95.79
2018-11-06T06:16:59.156Z,95.95
2018-11-06T06:17:59.023Z,95.9
2018-11-06T06:18:59.051Z,95.5
2018-11-06T06:19:59.062Z,95.53
2018-11-06T06:20:58.970Z,95.92
2018-11-06T06:21:59.026Z,96.33
2018-11-06T06:22:59.089Z,96.53
2018-11-06T06:23:59.606Z,96.66
2018-11-06T06:24:58.847Z,96.62
2018-11-06T06:25:58.875Z,95.89
2018-11-06T06:26:58.854Z,96
2018-11-06T06:27:58.953Z,96.2
2018-11-06T06:28:58.918Z,96.43
2018-11-06T06:29:59.027Z,96.61
2018-11-06T06:30:58.991Z,96.3
2018-11-06T06:31:58.869Z,96.37
2018-11-06T06:32:58.825Z,96.35
2018-11-06T06:33:59.194Z,96.42
2018-11-06T06:34:59.132Z,96.73
2018-11-06T06:35:58.998Z,96.82
2018-11-06T06:36:58.857Z,96.85
2018-11-06T06:37:58.955Z,96.41
2018-11-06T06:38:59.088Z,95.95
2018-11-06T06:39:59.151Z,95.98
2018-11-06T06:40:59.532Z,95.82
2018-11-06T06:41:58.811Z,95.69
2018-11-06T06:42:58.820Z,95.78
2018-11-06T06:43:58.896Z,96.26
2018-11-06T06:44:58.831Z,96.49
2018-11-06T06:45:59.239Z,96.33
2018-11-06T06:46:58.877Z,95.69
2018-11-06T06:47:59.049Z,95.98
2018-11-06T06:48:58.808Z,96.15
2018-11-06T06:49:58.980Z,96.24
2018-11-06T06:50:58.875Z,96.48
2018-11-06T06:51:59.064Z,96.87
2018-11-06T06:52:58.812Z,97.13
2018-11-06T06:53:59.225Z,97.16
2018-11-06T06:54:59.131Z,97.5
2018-11-06T06:55:59.028Z,97.53
2018-11-06T06:56:58.981Z,97.72
2018-11-06T06:57:59.111Z,97.87
2018-11-06T06:58:58.837Z,97.99
2018-11-06T06:59:58.843Z,98.04
2018-11-06T07:00:59.221Z,98.06
2018-11-06T07:01:59.156Z,98.05
2018-11-06T07:02:58.822Z,97.67
2018-11-06T07:03:58.871Z,97.6
2018-11-06T07:04:58.836Z,97.65
2018-11-06T07:05:58.803Z,97.67
2018-11-06T07:06:58.846Z,97.66
2018-11-06T07:07:58.795Z,97.63
2018-11-06T07:08:58.790Z,97.79
2018-11-06T07:09:58.961Z,97.81
2018-11-06T07:10:58.817Z,97.82
2018-11-06T07:11:58.780Z,97.69
2018-11-06T07:12:59.772Z,97.74
2018-11-06T07:13:58.864Z,97.74
2018-11-06T07:14:58.793Z,97.7
2018-11-06T07:15:58.969Z,97.62
2018-11-06T07:16:58.795Z,97.32
2018-11-06T07:17:58.821Z,97.07
2018-11-06T07:18:58.947Z,97.16
2018-11-06T07:19:58.969Z,97.23
2018-11-06T07:20:58.770Z,96.88
2018-11-06T07:21:58.808Z,97.11
2018-11-06T07:22:58.852Z,97.02
2018-11-06T07:23:58.750Z,96.64
2018-11-06T07:24:58.820Z,96.45
2018-11-06T07:25:58.753Z,96.4
2018-11-06T07:26:58.860Z,96.72
2018-11-06T07:27:58.851Z,96.58
2018-11-06T07:28:59.485Z,96.37
2018-11-06T07:29:59.070Z,96.26
2018-11-06T07:30:58.919Z,96.17
2018-11-06T07:31:58.784Z,96.09
2018-11-06T07:32:58.800Z,96.28
2018-11-06T07:33:58.772Z,96.37
2018-11-06T07:35:00.126Z,95.9
2018-11-06T07:35:59.621Z,95.95
2018-11-06T07:36:58.782Z,96.09
2018-11-06T07:37:59.114Z,96.07
2018-11-06T07:38:58.790Z,96.37
2018-11-06T07:39:58.937Z,96.57
2018-11-06T07:40:59.298Z,96.63
2018-11-06T07:41:58.811Z,96.72
2018-11-06T07:42:58.824Z,96.4
2018-11-06T07:43:58.777Z,96.23
2018-11-06T07:44:59.032Z,96.43
2018-11-06T07:45:58.859Z,96.35
2018-11-06T07:46:58.735Z,95.88
2018-11-06T07:47:58.846Z,95.88
2018-11-06T07:48:59.229Z,95.92
2018-11-06T07:49:59.527Z,95.94
2018-11-06T07:50:58.718Z,96
2018-11-06T07:51:58.687Z,96.15
2018-11-06T07:52:59.092Z,96.26
2018-11-06T07:53:59.086Z,95.94
2018-11-06T07:54:59.188Z,95.96
2018-11-06T07:55:59.186Z,96.08
2018-11-06T07:56:58.843Z,95.94
2018-11-06T07:57:59.127Z,96.03
2018-11-06T07:58:58.696Z,96.05
2018-11-06T07:59:59.125Z,96.2
2018-11-06T08:00:58.877Z,96.18
2018-11-06T08:01:58.752Z,95.94
2018-11-06T08:02:58.732Z,96.07
2018-11-06T08:03:58.878Z,96.53
2018-11-06T08:04:58.688Z,96.89
2018-11-06T08:05:58.834Z,96.97
2018-11-06T08:06:58.783Z,97.02
2018-11-06T08:07:59.271Z,97.04
2018-11-06T08:08:58.964Z,96.86
2018-11-06T08:09:58.790Z,96.59
2018-11-06T08:10:58.708Z,96.4
2018-11-06T08:11:58.697Z,96.76
2018-11-06T08:12:58.736Z,96.67
2018-11-06T08:13:58.714Z,96.5
2018-11-06T08:14:59.296Z,96.39
2018-11-06T08:15:58.735Z,96.3
2018-11-06T08:16:58.706Z,96.35
2018-11-06T08:17:59.121Z,96.42
2018-11-06T08:18:58.727Z,96.32
2018-11-06T08:19:58.725Z,96.37
2018-11-06T08:20:58.717Z,96.34
2018-11-06T08:21:58.702Z,96.16
2018-11-06T08:22:58.714Z,96.07
2018-11-06T08:23:58.984Z,96.1
2018-11-06T08:24:58.666Z,96.24
2018-11-06T08:25:59.004Z,96.2
2018-11-06T08:26:58.734Z,96.19
2018-11-06T08:27:58.796Z,96.42
2018-11-06T08:28:58.916Z,96.29
2018-11-06T08:29:59.033Z,96.22
2018-11-06T08:31:00.619Z,96.2
2018-11-06T08:32:01.917Z,96
2018-11-06T08:32:58.747Z,96.07
2018-11-06T08:33:58.831Z,95.9
2018-11-06T08:34:58.714Z,96.14
2018-11-06T08:35:58.661Z,96.47
2018-11-06T08:36:59.505Z,96.38
2018-11-06T08:37:58.700Z,96.34
2018-11-06T08:38:58.629Z,96.63
2018-11-06T08:39:58.712Z,96.79
2018-11-06T08:40:58.882Z,96.71
2018-11-06T08:41:58.702Z,96.5
2018-11-06T08:42:58.646Z,96.42
2018-11-06T08:43:58.661Z,96.27
2018-11-06T08:44:58.820Z,96.31
2018-11-06T08:45:58.867Z,96.5
2018-11-06T08:46:58.639Z,96.46
2018-11-06T08:47:59.322Z,96.64
2018-11-06T08:48:58.649Z,96.8
2018-11-06T08:49:58.691Z,96.72
2018-11-06T08:50:58.713Z,96.5
2018-11-06T08:51:58.675Z,96.57
2018-11-06T08:52:58.814Z,96.51
2018-11-06T08:53:58.688Z,96.66
2018-11-06T08:54:58.776Z,96.85
2018-11-06T08:55:58.698Z,96.66
2018-11-06T08:56:58.722Z,96.67
2018-11-06T08:57:58.668Z,96.57
2018-11-06T08:58:58.665Z,96.57
2018-11-06T08:59:58.821Z,96.57
2018-11-06T09:00:58.685Z,96.64
2018-11-06T09:01:58.654Z,96.72
2018-11-06T09:02:58.682Z,96.65
2018-11-06T09:03:58.859Z,96.71
2018-11-06T09:04:58.765Z,96.75
2018-11-06T09:05:58.742Z,96.77
2018-11-06T09:06:58.869Z,96.87
2018-11-06T09:07:58.716Z,97
2018-11-06T09:08:59.261Z,97
2018-11-06T09:09:58.906Z,96.99
2018-11-06T09:10:59.008Z,96.95
2018-11-06T09:11:59.007Z,96.86
2018-11-06T09:12:58.615Z,96.95
2018-11-06T09:13:58.811Z,97.03
2018-11-06T09:14:58.604Z,97.13
2018-11-06T09:15:58.687Z,97.1
2018-11-06T09:16:58.941Z,97.24
2018-11-06T09:17:58.798Z,97.09
2018-11-06T09:18:58.636Z,96.85
2018-11-06T09:19:58.596Z,96.73
2018-11-06T09:20:59.052Z,96.74
2018-11-06T09:21:58.680Z,96.9
2018-11-06T09:22:58.890Z,97
2018-11-06T09:23:58.592Z,97.19
2018-11-06T09:24:58.620Z,97.1
2018-11-06T09:25:58.648Z,96.99
2018-11-06T09:26:58.690Z,96.98
2018-11-06T09:27:58.849Z,97.05
2018-11-06T09:28:58.676Z,97.22
2018-11-06T09:29:58.678Z,97.19
2018-11-06T09:30:59.365Z,97.21
2018-11-06T09:31:58.979Z,97.19
2018-11-06T09:32:58.856Z,97.16
2018-11-06T09:33:58.703Z,96.93
2018-11-06T09:34:59.018Z,96.67
2018-11-06T09:35:58.726Z,96.53
2018-11-06T09:36:58.607Z,96.52
2018-11-06T09:37:58.566Z,96.54
2018-11-06T09:38:58.771Z,96.51
2018-11-06T09:39:58.594Z,96.43
2018-11-06T09:40:58.581Z,96.6
2018-11-06T09:41:58.568Z,96.62
2018-11-06T09:42:58.812Z,96.51
2018-11-06T09:43:58.573Z,96.26
2018-11-06T09:44:58.808Z,96.43
2018-11-06T09:45:58.881Z,96.35
2018-11-06T09:46:58.555Z,96.52
2018-11-06T09:47:58.524Z,96.63
2018-11-06T09:48:58.545Z,96.55
2018-11-06T09:49:58.568Z,96.26
2018-11-06T09:50:58.554Z,96.4
2018-11-06T09:51:58.917Z,96.38
2018-11-06T09:52:58.573Z,96.47
2018-11-06T09:53:58.575Z,96.54
2018-11-06T09:54:58.556Z,96.29
2018-11-06T09:55:58.535Z,96.25
2018-11-06T09:56:58.915Z,96.12
2018-11-06T09:57:58.623Z,96.24
2018-11-06T09:58:58.559Z,96.18
2018-11-06T09:59:58.674Z,96.14
2018-11-06T10:00:59.383Z,96.11
2018-11-06T10:01:58.602Z,95.86
2018-11-06T10:02:58.590Z,95.6
2018-11-06T10:03:58.844Z,95.69
2018-11-06T10:04:58.598Z,95.74
2018-11-06T10:05:58.983Z,95.64
2018-11-06T10:07:00.542Z,95.92
2018-11-06T10:07:58.744Z,95.64
2018-11-06T10:08:58.596Z,95.43
2018-11-06T10:09:58.536Z,95.26
2018-11-06T10:10:58.563Z,95.11
2018-11-06T10:11:58.716Z,95.07
2018-11-06T10:12:58.665Z,95.01
2018-11-06T10:13:58.567Z,95.33
2018-11-06T10:14:58.699Z,95.59
2018-11-06T10:15:58.494Z,95.59
2018-11-06T10:16:58.734Z,95.68
2018-11-06T10:17:58.547Z,95.51
2018-11-06T10:18:58.573Z,95.45
2018-11-06T10:19:58.855Z,94.93
2018-11-06T10:20:58.672Z,94.71
2018-11-06T10:21:58.653Z,94.58
2018-11-06T10:22:58.559Z,94.54
2018-11-06T10:23:58.900Z,94.43
2018-11-06T10:24:58.650Z,94.24
2018-11-06T10:25:58.732Z,94.15
2018-11-06T10:26:58.659Z,94.51
2018-11-06T10:27:58.488Z,94.95
2018-11-06T10:28:58.573Z,94.9
2018-11-06T10:29:58.518Z,95.13
2018-11-06T10:30:58.938Z,95.49
2018-11-06T10:31:58.543Z,95.08
2018-11-06T10:32:58.568Z,95.57
2018-11-06T10:33:58.505Z,95.27
2018-11-06T10:34:58.512Z,94.98
2018-11-06T10:35:58.602Z,95.11
2018-11-06T10:36:58.718Z,94.95
2018-11-06T10:37:58.699Z,94.9
2018-11-06T10:38:58.745Z,94.8
2018-11-06T10:39:58.711Z,94.66
2018-11-06T10:40:58.626Z,94.61
2018-11-06T10:41:58.528Z,94.92
2018-11-06T10:42:58.652Z,94.83
2018-11-06T10:43:58.502Z,94.86
2018-11-06T10:44:58.695Z,94.87
2018-11-06T10:45:58.533Z,94.62
2018-11-06T10:46:58.486Z,94.6
2018-11-06T10:47:58.463Z,94.74
2018-11-06T10:48:58.778Z,94.84
2018-11-06T10:49:58.523Z,94.21
2018-11-06T10:50:58.511Z,93.99
2018-11-06T10:51:58.647Z,93.79
2018-11-06T10:52:58.461Z,93.94
2018-11-06T10:53:58.515Z,93.87
2018-11-06T10:54:58.501Z,93.73
2018-11-06T10:55:58.607Z,94.6
2018-11-06T10:56:58.477Z,94.72
2018-11-06T10:57:58.773Z,94.12
2018-11-06T10:58:58.593Z,94.27
2018-11-06T10:59:58.492Z,94.51
2018-11-06T11:00:58.586Z,94.57
2018-11-06T11:01:58.502Z,94.79
2018-11-06T11:02:58.472Z,94.53
2018-11-06T11:03:58.683Z,94.52
2018-11-06T11:04:59.288Z,94.76
2018-11-06T11:05:58.491Z,94.66
2018-11-06T11:06:58.692Z,94.52
2018-11-06T11:07:58.454Z,94.56
2018-11-06T11:08:58.636Z,94.37
2018-11-06T11:09:58.586Z,94.51
2018-11-06T11:10:58.433Z,94.74
2018-11-06T11:11:58.537Z,95.03
2018-11-06T11:12:58.523Z,95.19
2018-11-06T11:13:58.446Z,94.89
2018-11-06T11:14:58.531Z,95.09
2018-11-06T11:15:58.446Z,95.28
2018-11-06T11:16:58.443Z,95.57
2018-11-06T11:17:58.453Z,95.3
2018-11-06T11:18:58.439Z,95.9
2018-11-06T11:19:58.622Z,94.87
2018-11-06T11:20:58.463Z,94.92
2018-11-06T11:21:58.457Z,95.05
2018-11-06T11:22:58.579Z,95.28
2018-11-06T11:23:58.430Z,95.52
2018-11-06T11:24:58.508Z,95.44
2018-11-06T11:25:58.436Z,95.58
2018-11-06T11:26:58.446Z,95.7
2018-11-06T11:27:58.471Z,95.5
2018-11-06T11:28:58.485Z,95.06
2018-11-06T11:29:58.476Z,95.04
2018-11-06T11:30:58.458Z,95.22
2018-11-06T11:31:58.915Z,94.9
2018-11-06T11:32:58.755Z,94.96
2018-11-06T11:33:58.661Z,95.17
2018-11-06T11:34:58.473Z,95.17
2018-11-06T11:35:58.411Z,95
2018-11-06T11:36:58.511Z,95.09
2018-11-06T11:37:58.459Z,94.86
2018-11-06T11:38:59.279Z,94.88
2018-11-06T11:39:58.413Z,95.26
2018-11-06T11:40:58.478Z,95.04
2018-11-06T11:41:58.406Z,95.13
2018-11-06T11:42:58.631Z,95.02
2018-11-06T11:43:58.445Z,95.12
2018-11-06T11:44:58.475Z,94.89
2018-11-06T11:45:59.010Z,94.94
2018-11-06T11:46:58.549Z,94.89
2018-11-06T11:47:58.839Z,94.89
2018-11-06T11:48:58.445Z,94.74
2018-11-06T11:49:58.542Z,94.74
2018-11-06T11:50:58.502Z,94.09
2018-11-06T11:51:58.489Z,93.96
2018-11-06T11:52:58.421Z,94.17
2018-11-06T11:53:58.435Z,94.51
2018-11-06T11:54:58.521Z,94.46
2018-11-06T11:55:58.484Z,94.61
2018-11-06T11:56:58.418Z,94.51
2018-11-06T11:57:58.386Z,94.61
2018-11-06T11:58:58.456Z,94.68
2018-11-06T11:59:58.595Z,94.48
2018-11-06T12:00:58.644Z,94.81
2018-11-06T12:01:58.574Z,94.64
2018-11-06T12:02:58.373Z,94.45
2018-11-06T12:03:58.773Z,94.48
2018-11-06T12:04:58.545Z,94.48
2018-11-06T12:05:58.515Z,94.25
2018-11-06T12:06:58.485Z,94.57
2018-11-06T12:07:58.427Z,95.05
2018-11-06T12:08:58.428Z,94.84
2018-11-06T12:09:58.433Z,94.62
2018-11-06T12:10:58.398Z,94.91
2018-11-06T12:11:58.402Z,95.15
2018-11-06T12:12:58.391Z,94.86
2018-11-06T12:13:58.406Z,95.17
2018-11-06T12:14:58.586Z,94.98
2018-11-06T12:15:58.599Z,94.88
2018-11-06T12:16:58.429Z,95.32
2018-11-06T12:17:58.465Z,95.29
2018-11-06T12:18:58.377Z,95.49
2018-11-06T12:19:58.510Z,95.34
2018-11-06T12:20:58.596Z,95.34
2018-11-06T12:21:58.559Z,95.4
2018-11-06T12:22:58.453Z,95.37
2018-11-06T12:23:58.627Z,95
2018-11-06T12:25:00.023Z,94.55
2018-11-06T12:25:58.484Z,94.58
2018-11-06T12:26:59.587Z,94.99
2018-11-06T12:27:58.337Z,95.24
2018-11-06T12:28:58.375Z,95.43
2018-11-06T12:29:58.755Z,95.3
2018-11-06T12:30:58.325Z,95.38
2018-11-06T12:31:58.463Z,95.41
2018-11-06T12:32:58.415Z,95.53
2018-11-06T12:33:58.751Z,95.52
2018-11-06T12:34:58.374Z,95.5
2018-11-06T12:35:58.583Z,95.43
2018-11-06T12:36:58.871Z,95.44
2018-11-06T12:37:58.367Z,94.87
2018-11-06T12:38:58.353Z,94.52
2018-11-06T12:39:58.388Z,94.79
2018-11-06T12:40:58.454Z,94.57
2018-11-06T12:41:58.371Z,94.38
2018-11-06T12:42:58.869Z,94.06
2018-11-06T12:43:58.361Z,94.13
2018-11-06T12:44:58.346Z,94.09
2018-11-06T12:45:58.355Z,94.36
2018-11-06T12:46:58.289Z,94.3
2018-11-06T12:47:58.331Z,94.43
2018-11-06T12:48:58.366Z,94.5
2018-11-06T12:49:58.298Z,94.16
2018-11-06T12:50:58.429Z,94.27
2018-11-06T12:51:58.298Z,94.42
2018-11-06T12:52:58.399Z,94.2
2018-11-06T12:53:58.569Z,93.99
2018-11-06T12:54:58.300Z,94.31
2018-11-06T12:55:58.585Z,94.3
2018-11-06T12:56:58.330Z,94.48